Spear, North Carolina
Current Conditions -  °F | °C
As of 1:15 PM on Monday 26 Jan 2015 (Local Time) from KTNB Reporting Station
Light Snow Light Snow  
Wind Chill: 25°   Ceiling: 1200
Heat Index: 36°   Visibility: 4mi
Dew Point: 32°   Wind: 20mph
Humidity: 85%   Direction: 300°WNW
Pressure: 29.61"   Gusts: 28mph
Location:  36.0227°N, 81.9499°W
Report Text: KTNB 261815Z AUTO 30017G24KT 4SM -SN BKN012 BKN050 BKN070 02/00 A2961 RMK AO2 T00201002
Loading
Personal Weather Stations






























Interactive Weather Map New forecast layout! Learn more

10-Day Weather Forecast

Advertisements
Track Severe Weather on mobile